Time;durP1;ratioP1;P1;durP2;ratioP2;P2;SDS_P1;SDS_P2;PMS_P1;PMS_P2;Temp;Humidity;BMP_temperature;BMP_pressure;BME280_temperature;BME280_humidity;BME280_pressure;Samples;Min_cycle;Max_cycle;Signal;HPM_P1;HPM_P2
2022/11/22 00:00:18;;;;;;;27.77;11.85;;;-0.70;71.70;;;;;;4127214;28;20039;-82
2022/11/22 00:02:23;;;;;;;26.30;11.75;;;-0.70;71.70;;;;;;4127611;28;20474;-82
2022/11/22 00:04:23;;;;;;;23.05;11.68;;;-0.70;71.80;;;;;;4100056;28;20030;-83
2022/11/22 00:06:24;;;;;;;26.08;11.57;;;-0.70;71.80;;;;;;4117710;28;20026;-83
2022/11/22 00:08:24;;;;;;;24.42;12.32;;;-0.70;71.90;;;;;;4116647;28;20030;-82
2022/11/22 00:10:25;;;;;;;21.35;10.98;;;-0.80;71.90;;;;;;4120555;28;20027;-82
2022/11/22 00:12:26;;;;;;;23.42;11.38;;;-0.70;72.10;;;;;;4118652;28;20025;-83
2022/11/22 00:14:27;;;;;;;24.88;12.13;;;-0.70;72.10;;;;;;4120956;28;20042;-82
2022/11/22 00:16:29;;;;;;;23.88;11.82;;;-0.80;72.10;;;;;;4102977;28;20030;-83
2022/11/22 00:18:30;;;;;;;26.77;12.43;;;-0.80;72.10;;;;;;4100994;28;20753;-83
2022/11/22 00:20:30;;;;;;;24.92;11.63;;;-0.70;72.30;;;;;;4117807;28;20029;-83
2022/11/22 00:22:31;;;;;;;25.90;12.05;;;-0.80;72.30;;;;;;4105146;28;20490;-82
2022/11/22 00:24:32;;;;;;;22.80;10.95;;;-0.80;72.40;;;;;;4119700;28;20455;-83
2022/11/22 00:26:33;;;;;;;20.27;10.45;;;-0.70;72.50;;;;;;4101580;28;20039;-83
2022/11/22 00:28:34;;;;;;;23.60;11.52;;;-0.70;72.50;;;;;;4104917;28;20516;-82
2022/11/22 00:30:34;;;;;;;22.65;10.48;;;-0.70;72.60;;;;;;4121359;28;20061;-83
2022/11/22 00:32:35;;;;;;;22.13;10.80;;;-0.70;72.60;;;;;;4137389;28;20030;-82
2022/11/22 00:34:36;;;;;;;23.02;11.27;;;-0.70;72.60;;;;;;4134724;28;20031;-81
2022/11/22 00:36:36;;;;;;;22.50;10.45;;;-0.70;72.70;;;;;;4129529;28;20035;-82
2022/11/22 00:38:37;;;;;;;23.98;11.27;;;-0.60;72.70;;;;;;4110423;28;20110;-83
2022/11/22 00:40:38;;;;;;;22.23;10.95;;;-0.70;72.60;;;;;;4102495;28;20093;-82
2022/11/22 00:42:38;;;;;;;21.90;11.38;;;-0.70;72.80;;;;;;4119158;28;20026;-81
2022/11/22 00:44:39;;;;;;;22.52;11.27;;;-0.60;72.80;;;;;;4090819;28;20027;-82
2022/11/22 00:46:39;;;;;;;19.25;10.48;;;-0.60;73.00;;;;;;4115031;28;20442;-82
2022/11/22 00:48:41;;;;;;;22.77;11.18;;;-0.60;72.90;;;;;;4120104;28;20110;-82
2022/11/22 00:50:41;;;;;;;22.30;10.82;;;-0.60;72.80;;;;;;4118678;28;20034;-82
2022/11/22 00:52:42;;;;;;;21.90;10.63;;;-0.60;72.80;;;;;;4120825;28;20110;-82
2022/11/22 00:54:44;;;;;;;24.10;11.60;;;-0.60;72.80;;;;;;4104507;28;20569;-82
2022/11/22 00:56:45;;;;;;;23.55;11.02;;;-0.60;72.70;;;;;;4106868;28;20038;-82
2022/11/22 00:58:46;;;;;;;23.52;11.88;;;-0.50;72.80;;;;;;4084764;28;20389;-82
2022/11/22 01:00:48;;;;;;;20.60;10.80;;;-0.50;72.90;;;;;;4117909;28;20462;-83
2022/11/22 01:02:49;;;;;;;24.48;10.75;;;-0.50;72.90;;;;;;4089464;28;20138;-82
2022/11/22 01:04:53;;;;;;;23.60;11.50;;;-0.50;72.90;;;;;;4119287;28;20026;-82
2022/11/22 01:06:55;;;;;;;20.20;10.18;;;-0.50;72.90;;;;;;4089019;28;20030;-83
2022/11/22 01:08:56;;;;;;;23.58;11.77;;;-0.50;72.90;;;;;;4098915;28;20030;-83
2022/11/22 01:10:58;;;;;;;23.83;11.13;;;-0.50;72.90;;;;;;4103022;28;20393;-81
2022/11/22 01:12:59;;;;;;;23.27;11.50;;;-0.40;73.00;;;;;;4105724;28;20036;-82
2022/11/22 01:15:00;;;;;;;27.05;12.27;;;-0.40;73.00;;;;;;4119441;28;20026;-83
2022/11/22 01:17:00;;;;;;;23.50;11.60;;;-0.40;73.00;;;;;;4102934;28;20451;-82
2022/11/22 01:19:01;;;;;;;20.92;10.65;;;-0.40;73.00;;;;;;4117489;28;20692;-83
2022/11/22 01:21:03;;;;;;;23.25;11.18;;;-0.40;73.00;;;;;;4099503;28;20039;-82
2022/11/22 01:23:03;;;;;;;24.27;11.98;;;-0.40;73.00;;;;;;4129044;28;20105;-82
2022/11/22 01:25:05;;;;;;;22.80;12.32;;;-0.40;73.10;;;;;;4095304;28;20838;-83
2022/11/22 01:27:06;;;;;;;23.17;11.30;;;-0.40;73.00;;;;;;4102758;28;20050;-83
2022/11/22 01:29:07;;;;;;;25.08;12.25;;;-0.40;73.00;;;;;;4080392;28;20023;-82
2022/11/22 01:31:08;;;;;;;23.35;11.82;;;-0.40;72.90;;;;;;4101728;28;20079;-82
2022/11/22 01:33:29;;;;;;;25.00;11.75;;;-0.40;73.00;;;;;;4116456;28;20062;-81
2022/11/22 01:35:30;;;;;;;25.70;12.05;;;-0.30;73.00;;;;;;4103664;28;20034;-82
2022/11/22 01:37:31;;;;;;;23.75;11.80;;;-0.30;73.70;;;;;;4101891;28;20039;-82
2022/11/22 01:39:52;;;;;;;26.88;13.40;;;-0.30;72.90;;;;;;4119052;28;20410;-82
2022/11/22 01:42:12;;;;;;;26.88;12.23;;;-0.30;73.00;;;;;;4116867;28;20034;-83
2022/11/22 01:44:33;;;;;;;28.40;14.20;;;-0.30;73.00;;;;;;4105091;28;20605;-83
2022/11/22 01:46:57;;;;;;;27.50;13.73;;;-0.30;73.10;;;;;;4104428;28;20022;-83
2022/11/22 01:49:48;;;;;;;30.55;14.52;;;-0.30;73.00;;;;;;4123667;28;20487;-82
2022/11/22 01:51:51;;;;;;;26.02;14.07;;;-0.30;73.20;;;;;;4114504;28;20027;-83
2022/11/22 01:54:17;;;;;;;31.88;14.10;;;-0.30;73.10;;;;;;4118457;28;20054;-83
2022/11/22 01:56:39;;;;;;;33.25;14.13;;;-0.30;73.90;;;;;;4118302;28;20030;-83
2022/11/22 01:58:41;;;;;;;26.55;14.00;;;-0.30;73.20;;;;;;4103319;28;20023;-83
2022/11/22 02:01:02;;;;;;;30.25;14.18;;;-0.30;73.20;;;;;;4116811;28;20030;-82
2022/11/22 02:03:24;;;;;;;29.35;14.52;;;-0.30;73.50;;;;;;4118864;28;20030;-83
2022/11/22 02:05:46;;;;;;;28.70;15.15;;;-0.30;73.50;;;;;;4118287;28;20034;-82
2022/11/22 02:08:14;;;;;;;33.13;15.07;;;-0.30;73.50;;;;;;4112289;28;20331;-81
2022/11/22 02:10:39;;;;;;;28.27;13.90;;;-0.30;73.50;;;;;;4117575;28;20044;-81
2022/11/22 02:13:00;;;;;;;29.95;15.20;;;-0.30;73.60;;;;;;4117788;28;20125;-82
2022/11/22 02:15:20;;;;;;;28.50;14.63;;;-0.30;73.70;;;;;;4104723;28;20027;-82
2022/11/22 02:17:41;;;;;;;32.20;16.42;;;-0.30;73.80;;;;;;4117020;28;20054;-82
2022/11/22 02:20:02;;;;;;;33.08;15.27;;;-0.20;73.90;;;;;;4103246;28;20053;-82
2022/11/22 02:22:39;;;;;;;29.85;14.55;;;-0.20;73.90;;;;;;4116939;28;20268;-81
2022/11/22 02:24:48;;;;;;;29.85;15.20;;;-0.20;73.90;;;;;;4101418;28;20070;-81
2022/11/22 02:26:49;;;;;;;35.97;16.52;;;-0.20;74.00;;;;;;4122432;28;20113;-82
2022/11/22 02:28:51;;;;;;;32.92;15.75;;;-0.20;74.10;;;;;;4097084;28;20065;-82
2022/11/22 02:30:52;;;;;;;30.47;15.13;;;-0.10;74.20;;;;;;4119146;28;20154;-82
2022/11/22 02:32:52;;;;;;;30.50;14.70;;;-0.10;74.20;;;;;;4114470;28;20054;-81
2022/11/22 02:34:53;;;;;;;33.78;15.55;;;-0.10;74.40;;;;;;4099927;28;20047;-82
2022/11/22 02:36:53;;;;;;;33.15;16.52;;;-0.10;74.40;;;;;;4112084;28;20505;-83
2022/11/22 02:38:55;;;;;;;31.52;15.95;;;-0.10;74.40;;;;;;4100670;28;20034;-83
2022/11/22 02:41:01;;;;;;;32.70;14.95;;;-0.10;74.70;;;;;;4114245;28;20046;-83
2022/11/22 02:43:07;;;;;;;31.52;15.10;;;-0.10;74.60;;;;;;4105042;28;20034;-83
2022/11/22 02:45:08;;;;;;;30.67;15.35;;;0.00;75.50;;;;;;4113897;28;20077;-83
2022/11/22 02:47:08;;;;;;;31.73;15.77;;;0.00;75.00;;;;;;4115149;28;20031;-84
2022/11/22 02:49:09;;;;;;;27.88;14.43;;;0.00;75.00;;;;;;4103982;28;20034;-82
2022/11/22 02:51:15;;;;;;;34.00;16.05;;;0.00;75.10;;;;;;4100845;28;20153;-82
2022/11/22 02:53:16;;;;;;;27.05;14.15;;;0.00;75.20;;;;;;4103560;28;20034;-82
2022/11/22 02:55:16;;;;;;;26.52;13.52;;;0.00;75.20;;;;;;4113131;28;20037;-83
2022/11/22 02:57:17;;;;;;;32.45;14.32;;;0.10;75.20;;;;;;4119109;28;20792;-83
2022/11/22 02:59:18;;;;;;;30.75;15.48;;;0.10;75.30;;;;;;4105185;28;20097;-83
2022/11/22 03:01:19;;;;;;;27.92;14.13;;;0.10;75.70;;;;;;4095133;28;20027;-83
2022/11/22 03:03:22;;;;;;;30.45;15.23;;;0.10;75.60;;;;;;4118081;28;20034;-82
2022/11/22 03:05:27;;;;;;;30.77;14.55;;;0.10;75.60;;;;;;4105343;28;20027;-83
2022/11/22 03:07:28;;;;;;;30.55;14.63;;;0.10;75.60;;;;;;4124632;28;20057;-82
2022/11/22 03:09:30;;;;;;;28.58;14.10;;;0.20;76.30;;;;;;4119105;28;20034;-83
2022/11/22 03:11:31;;;;;;;30.35;13.70;;;0.20;75.50;;;;;;4105359;28;20503;-82
2022/11/22 03:13:32;;;;;;;33.30;15.10;;;0.20;75.60;;;;;;4125155;28;20077;-84
2022/11/22 03:15:32;;;;;;;31.27;15.00;;;0.30;75.70;;;;;;4108046;28;20026;-83
2022/11/22 03:17:33;;;;;;;26.27;14.35;;;0.30;75.80;;;;;;4117279;28;20041;-83
2022/11/22 03:19:34;;;;;;;29.38;14.43;;;0.30;75.80;;;;;;4119530;28;20023;-82
2022/11/22 03:21:34;;;;;;;29.48;15.45;;;0.30;75.70;;;;;;4119526;28;20077;-83
2022/11/22 03:23:35;;;;;;;31.05;15.50;;;0.30;76.20;;;;;;4104088;28;20027;-83
2022/11/22 03:25:37;;;;;;;28.98;15.30;;;0.30;76.20;;;;;;4127227;28;20037;-82
2022/11/22 03:27:38;;;;;;;28.48;14.95;;;0.30;76.20;;;;;;4109796;28;20702;-82
2022/11/22 03:29:38;;;;;;;28.17;14.02;;;0.30;76.50;;;;;;4120292;28;20051;-83
2022/11/22 03:31:39;;;;;;;28.55;14.95;;;0.40;76.30;;;;;;4105450;28;20059;-83
2022/11/22 03:33:40;;;;;;;29.33;15.27;;;0.40;76.20;;;;;;4110362;28;20031;-83
2022/11/22 03:35:40;;;;;;;27.25;13.43;;;0.40;76.30;;;;;;4111335;28;20035;-83
2022/11/22 03:37:41;;;;;;;28.63;14.15;;;0.50;76.40;;;;;;4109119;28;20039;-83
2022/11/22 03:39:42;;;;;;;28.08;13.40;;;0.50;76.50;;;;;;4110042;28;20038;-84
2022/11/22 03:41:43;;;;;;;30.15;14.95;;;0.60;76.80;;;;;;4133128;28;20299;-84
2022/11/22 03:43:43;;;;;;;26.00;13.63;;;0.50;77.00;;;;;;4110212;28;20043;-84
2022/11/22 03:45:46;;;;;;;31.42;14.60;;;0.60;76.90;;;;;;4125133;28;20090;-84
2022/11/22 03:47:47;;;;;;;27.00;13.25;;;0.50;77.20;;;;;;4108049;28;20734;-84
2022/11/22 03:49:49;;;;;;;27.55;14.40;;;0.60;77.10;;;;;;4108893;28;20037;-84
2022/11/22 03:51:51;;;;;;;27.65;14.23;;;0.60;77.20;;;;;;4106009;28;20098;-84
2022/11/22 03:53:51;;;;;;;28.40;14.38;;;0.70;77.10;;;;;;4122559;28;20041;-83
2022/11/22 03:55:52;;;;;;;26.08;13.80;;;0.70;77.10;;;;;;4125073;28;20035;-84
2022/11/22 03:57:53;;;;;;;28.65;14.32;;;0.70;77.10;;;;;;4104327;28;20042;-83
2022/11/22 03:59:53;;;;;;;28.15;13.55;;;0.70;77.10;;;;;;4122246;28;20102;-83
2022/11/22 04:01:54;;;;;;;27.88;13.90;;;0.80;77.00;;;;;;4104865;28;20046;-84
2022/11/22 04:03:55;;;;;;;27.95;13.88;;;0.80;76.90;;;;;;4103892;28;22072;-83
2022/11/22 04:05:57;;;;;;;24.23;13.57;;;0.80;77.00;;;;;;4108468;28;20058;-84
2022/11/22 04:07:58;;;;;;;30.83;14.65;;;0.80;76.90;;;;;;4107424;28;20030;-84
2022/11/22 04:09:59;;;;;;;28.77;13.63;;;0.80;76.80;;;;;;4120100;28;20037;-82
2022/11/22 04:12:19;;;;;;;28.98;14.30;;;0.90;76.80;;;;;;4124271;28;20948;-82
2022/11/22 04:17:39;;;;;;;28.98;14.40;;;0.90;76.70;;;;;;4124088;28;20403;-83
2022/11/22 04:21:32;;;;;;;30.98;14.88;;;0.90;76.70;;;;;;4122428;28;20019;-83
2022/11/22 04:22:40;;;;;;;27.65;13.95;;;0.90;76.70;;;;;;4123621;28;20531;-81
2022/11/22 04:27:20;;;;;;;31.20;13.93;;;1.10;76.90;;;;;;4143627;28;20058;-81
2022/11/22 04:29:41;;;;;;;26.27;13.55;;;1.00;76.70;;;;;;4106588;28;20742;-81
2022/11/22 04:34:40;;;;;;;28.30;14.15;;;1.00;76.90;;;;;;4123268;28;20570;-83
2022/11/22 04:37:02;;;;;;;28.90;13.85;;;1.00;76.90;;;;;;4116120;28;20040;-82
2022/11/22 04:39:22;;;;;;;26.92;13.90;;;1.00;76.80;;;;;;4119911;28;20082;-83
2022/11/22 04:41:43;;;;;;;29.35;13.95;;;1.10;76.90;;;;;;4112916;28;20261;-83
2022/11/22 04:46:43;;;;;;;32.75;13.70;;;1.10;77.10;;;;;;4122966;28;20042;-83
2022/11/22 04:49:05;;;;;;;25.52;13.15;;;1.10;77.10;;;;;;4119329;28;20133;-84
2022/11/22 04:54:04;;;;;;;26.90;13.52;;;1.20;77.40;;;;;;4120864;28;20034;-83
2022/11/22 04:56:25;;;;;;;31.50;13.43;;;1.20;77.40;;;;;;4119857;28;20125;-84
2022/11/22 04:58:30;;;;;;;25.05;13.90;;;1.30;77.60;;;;;;4106580;28;20027;-83
2022/11/22 05:00:51;;;;;;;28.45;14.65;;;1.30;77.80;;;;;;4119375;28;20090;-83
2022/11/22 05:03:12;;;;;;;25.98;13.32;;;1.30;77.80;;;;;;4113238;28;20037;-83
2022/11/22 05:05:13;;;;;;;31.17;14.43;;;1.30;77.80;;;;;;4104324;28;20015;-83
2022/11/22 05:07:33;;;;;;;26.88;13.38;;;1.40;77.90;;;;;;4123840;28;20034;-83
2022/11/22 05:09:54;;;;;;;28.50;14.43;;;1.40;77.80;;;;;;4118620;28;20130;-82
2022/11/22 05:12:14;;;;;;;28.40;13.80;;;1.50;78.10;;;;;;4106887;28;20031;-83
2022/11/22 05:14:35;;;;;;;30.83;13.57;;;1.50;77.90;;;;;;4112380;28;20031;-84
2022/11/22 05:16:36;;;;;;;28.30;14.18;;;1.50;77.90;;;;;;4122749;28;20026;-83
2022/11/22 05:18:59;;;;;;;28.08;13.70;;;1.50;78.10;;;;;;4124380;28;20030;-83
2022/11/22 05:21:08;;;;;;;32.65;15.95;;;1.60;78.00;;;;;;4111206;28;20069;-83
2022/11/22 05:25:49;;;;;;;27.00;14.73;;;1.60;78.20;;;;;;4137967;28;20030;-82
2022/11/22 05:28:09;;;;;;;28.70;14.25;;;1.60;78.10;;;;;;4137777;28;20045;-83
2022/11/22 05:30:30;;;;;;;30.80;14.15;;;1.70;78.20;;;;;;4128427;28;20141;-83
2022/11/22 05:32:50;;;;;;;26.95;14.48;;;1.70;78.30;;;;;;4122696;28;20073;-83
2022/11/22 05:35:11;;;;;;;25.42;13.27;;;1.70;78.10;;;;;;4125684;28;20035;-82
2022/11/22 05:37:32;;;;;;;30.80;13.30;;;1.70;78.10;;;;;;4104923;28;20046;-83
2022/11/22 05:39:53;;;;;;;28.10;13.75;;;1.70;78.00;;;;;;4108396;28;20039;-83
2022/11/22 05:42:13;;;;;;;29.70;16.05;;;1.80;78.20;;;;;;4129464;28;20465;-83
2022/11/22 05:44:34;;;;;;;30.80;14.85;;;1.80;78.60;;;;;;4113706;28;20038;-83
2022/11/22 05:46:54;;;;;;;29.27;13.85;;;1.80;78.30;;;;;;4138785;28;20039;-83
2022/11/22 05:49:15;;;;;;;33.53;14.20;;;1.80;78.30;;;;;;4123264;28;20041;-83
2022/11/22 05:51:36;;;;;;;29.65;15.10;;;1.80;78.40;;;;;;4120500;28;20034;-84
2022/11/22 05:53:56;;;;;;;27.48;13.57;;;1.80;78.70;;;;;;4126405;28;20030;-83
2022/11/22 05:56:22;;;;;;;32.25;14.48;;;1.80;78.70;;;;;;4109928;28;20026;-83
2022/11/22 05:58:43;;;;;;;26.38;13.60;;;1.80;78.60;;;;;;4119597;28;20035;-83
2022/11/22 06:01:09;;;;;;;23.58;13.40;;;1.90;78.70;;;;;;4123316;28;20565;-84
2022/11/22 06:03:30;;;;;;;27.02;13.02;;;1.90;78.60;;;;;;4120280;28;20363;-84
2022/11/22 06:05:51;;;;;;;27.65;13.80;;;1.90;78.50;;;;;;4121838;28;20034;-84
2022/11/22 06:08:12;;;;;;;20.33;11.60;;;1.90;78.50;;;;;;4106555;28;20031;-84
2022/11/22 06:10:36;;;;;;;23.77;12.93;;;1.90;78.50;;;;;;4106950;28;20035;-84
2022/11/22 06:12:56;;;;;;;23.92;12.35;;;2.00;78.60;;;;;;4122786;28;20035;-84
2022/11/22 06:15:17;;;;;;;28.27;12.52;;;2.00;78.50;;;;;;4116113;28;20057;-85
2022/11/22 06:17:37;;;;;;;26.80;13.13;;;2.00;78.70;;;;;;4105090;28;20026;-84
2022/11/22 06:19:58;;;;;;;24.63;12.10;;;2.00;78.60;;;;;;4120069;28;20023;-84
2022/11/22 06:22:19;;;;;;;24.83;12.82;;;2.10;78.70;;;;;;4105185;28;20030;-85
2022/11/22 06:24:41;;;;;;;22.77;12.10;;;2.10;78.80;;;;;;4116633;28;20539;-84
2022/11/22 06:27:02;;;;;;;26.63;12.93;;;2.10;78.70;;;;;;4109622;28;20035;-84
2022/11/22 06:29:23;;;;;;;24.70;12.68;;;2.10;78.70;;;;;;4117724;28;20045;-85
2022/11/22 06:31:43;;;;;;;24.02;11.18;;;2.20;78.80;;;;;;4116472;28;20034;-84
2022/11/22 06:34:04;;;;;;;21.70;11.65;;;2.10;78.90;;;;;;4122437;28;20034;-83
2022/11/22 06:36:36;;;;;;;24.85;12.98;;;2.20;78.90;;;;;;4118744;28;20027;-84
2022/11/22 06:38:57;;;;;;;35.85;13.85;;;2.20;78.90;;;;;;4124355;28;20026;-84
2022/11/22 06:41:20;;;;;;;23.02;12.55;;;2.20;78.80;;;;;;4103189;28;21008;-83
2022/11/22 06:43:42;;;;;;;21.02;11.90;;;2.20;78.90;;;;;;4118887;28;20033;-83
2022/11/22 06:46:04;;;;;;;26.08;13.20;;;2.20;78.80;;;;;;4103882;28;20240;-85
2022/11/22 06:48:28;;;;;;;21.92;12.15;;;2.30;79.20;;;;;;4115555;28;20035;-84
2022/11/22 06:50:49;;;;;;;24.02;11.77;;;2.30;79.10;;;;;;4121565;28;20046;-84
2022/11/22 06:53:10;;;;;;;25.05;11.10;;;2.30;79.10;;;;;;4120214;28;20130;-83
2022/11/22 06:55:30;;;;;;;29.95;12.32;;;2.30;79.00;;;;;;4104935;28;20035;-84
2022/11/22 06:57:51;;;;;;;23.45;11.23;;;2.30;79.10;;;;;;4100311;28;20050;-85
2022/11/22 07:00:12;;;;;;;26.05;12.80;;;2.30;78.90;;;;;;4103330;28;20065;-85
2022/11/22 07:02:33;;;;;;;23.50;12.00;;;2.40;79.10;;;;;;4116323;28;20035;-84
2022/11/22 07:04:53;;;;;;;27.15;11.82;;;2.40;79.00;;;;;;4120265;28;20046;-84
2022/11/22 07:07:14;;;;;;;19.27;11.15;;;2.40;79.00;;;;;;4132421;28;20038;-84
2022/11/22 07:09:37;;;;;;;22.75;10.90;;;2.40;79.10;;;;;;4123900;28;20118;-83
2022/11/22 07:11:57;;;;;;;26.35;12.25;;;2.40;79.10;;;;;;4115948;28;20033;-85
2022/11/22 07:14:18;;;;;;;24.55;12.13;;;2.50;79.10;;;;;;4120018;28;21034;-84
2022/11/22 07:16:39;;;;;;;21.05;12.07;;;2.50;79.00;;;;;;4118842;28;20039;-85
2022/11/22 07:19:01;;;;;;;20.75;11.40;;;2.50;78.90;;;;;;4119083;28;20102;-85
2022/11/22 07:21:23;;;;;;;19.83;10.93;;;2.50;79.00;;;;;;4107149;28;20037;-84
2022/11/22 07:23:44;;;;;;;22.27;11.68;;;2.50;79.00;;;;;;4116847;28;20411;-83
2022/11/22 07:26:04;;;;;;;23.48;11.65;;;2.50;79.10;;;;;;4122455;28;20132;-84
2022/11/22 07:28:24;;;;;;;22.90;11.35;;;2.50;79.10;;;;;;4113945;28;20049;-84
2022/11/22 07:30:43;;;;;;;20.73;11.32;;;2.60;79.10;;;;;;4116760;28;20093;-83
2022/11/22 07:33:02;;;;;;;26.60;11.63;;;2.60;79.40;;;;;;4117188;28;20253;-85
2022/11/22 07:35:21;;;;;;;20.67;11.63;;;2.60;79.20;;;;;;4119040;28;20350;-85
2022/11/22 07:37:40;;;;;;;24.90;11.82;;;2.60;79.20;;;;;;4115755;28;20074;-84
2022/11/22 07:39:59;;;;;;;22.60;12.05;;;2.60;79.40;;;;;;4120090;28;20065;-84
2022/11/22 07:42:18;;;;;;;27.60;13.02;;;2.60;79.30;;;;;;4117773;28;20061;-85
2022/11/22 07:44:37;;;;;;;23.63;12.48;;;2.60;79.30;;;;;;4116207;28;20093;-83
2022/11/22 07:46:56;;;;;;;23.55;12.98;;;2.70;79.60;;;;;;4108676;28;20062;-84
2022/11/22 07:49:19;;;;;;;26.20;13.63;;;2.60;79.30;;;;;;4116482;28;20088;-84
2022/11/22 07:51:38;;;;;;;27.05;12.80;;;2.70;79.40;;;;;;4119318;28;20069;-84
2022/11/22 07:53:57;;;;;;;23.08;12.50;;;2.80;79.40;;;;;;4116247;28;20041;-84
2022/11/22 07:56:17;;;;;;;25.75;12.55;;;2.70;79.30;;;;;;4121001;28;20106;-83
2022/11/22 07:58:36;;;;;;;28.15;12.60;;;2.80;79.40;;;;;;4107149;28;20074;-84
2022/11/22 08:00:55;;;;;;;24.00;12.43;;;2.80;79.20;;;;;;4108921;28;20117;-85
2022/11/22 08:03:15;;;;;;;24.98;13.00;;;2.80;79.30;;;;;;4117532;28;20072;-85
2022/11/22 08:05:34;;;;;;;28.38;14.43;;;2.80;79.40;;;;;;4108053;28;20061;-84
2022/11/22 08:07:53;;;;;;;23.77;12.90;;;2.80;79.50;;;;;;4119485;28;20069;-84
2022/11/22 08:10:13;;;;;;;25.45;12.90;;;2.80;79.50;;;;;;4121573;28;20572;-85
2022/11/22 08:12:32;;;;;;;21.75;12.65;;;2.80;79.30;;;;;;4117576;28;20072;-84
2022/11/22 08:14:51;;;;;;;26.75;13.55;;;2.80;79.20;;;;;;4117909;28;20121;-85
2022/11/22 08:17:10;;;;;;;25.33;12.95;;;2.90;79.20;;;;;;4109265;28;20041;-83
2022/11/22 08:19:29;;;;;;;27.45;12.82;;;2.90;79.30;;;;;;4119846;28;20061;-84
2022/11/22 08:21:49;;;;;;;24.20;12.68;;;3.00;79.40;;;;;;4104922;28;20093;-84
2022/11/22 08:24:08;;;;;;;28.10;12.80;;;2.90;79.40;;;;;;4134853;28;20073;-83
2022/11/22 08:26:28;;;;;;;28.02;12.70;;;2.90;79.20;;;;;;4124178;28;20510;-85
2022/11/22 08:28:47;;;;;;;22.92;12.40;;;2.90;79.20;;;;;;4124390;28;20093;-85
2022/11/22 08:31:13;;;;;;;26.95;13.07;;;2.90;79.10;;;;;;4121746;28;20033;-84
2022/11/22 08:33:32;;;;;;;25.17;13.23;;;3.00;79.20;;;;;;4107975;28;20122;-83
2022/11/22 08:35:51;;;;;;;23.98;12.35;;;3.00;79.20;;;;;;4120907;28;20041;-84
2022/11/22 08:38:10;;;;;;;25.15;13.55;;;3.00;79.10;;;;;;4121473;28;20033;-84
2022/11/22 08:40:29;;;;;;;27.00;13.60;;;3.00;79.10;;;;;;4118839;28;20037;-84
2022/11/22 08:42:48;;;;;;;30.15;13.88;;;3.00;79.20;;;;;;4123227;28;20040;-84
2022/11/22 08:45:08;;;;;;;23.00;12.50;;;3.00;79.20;;;;;;4122429;28;20034;-84
2022/11/22 08:47:27;;;;;;;23.88;12.32;;;3.00;79.20;;;;;;4120843;28;20045;-84
2022/11/22 08:49:46;;;;;;;28.05;13.45;;;3.00;79.10;;;;;;4108526;28;20166;-85
2022/11/22 08:52:05;;;;;;;26.48;13.55;;;3.00;79.20;;;;;;4119289;28;20041;-83
2022/11/22 08:54:24;;;;;;;26.75;13.40;;;3.10;79.20;;;;;;4117453;28;20046;-84
2022/11/22 08:56:43;;;;;;;30.45;12.80;;;3.10;79.10;;;;;;4120278;28;20045;-84
2022/11/22 08:59:02;;;;;;;24.42;12.95;;;3.10;79.10;;;;;;4105078;28;20082;-84
2022/11/22 09:01:22;;;;;;;30.38;13.65;;;3.10;80.00;;;;;;4117157;28;20545;-84
2022/11/22 09:03:44;;;;;;;24.52;13.35;;;3.10;79.20;;;;;;4120667;28;20316;-83
2022/11/22 09:06:11;;;;;;;24.17;12.02;;;3.10;79.20;;;;;;4121221;28;20046;-84
2022/11/22 09:08:32;;;;;;;22.23;11.85;;;3.10;79.10;;;;;;4121360;28;20045;-83
2022/11/22 09:10:51;;;;;;;26.08;12.90;;;3.10;79.10;;;;;;4108631;28;20050;-84
2022/11/22 09:13:10;;;;;;;23.67;12.63;;;3.10;79.20;;;;;;4115471;28;20053;-84
2022/11/22 09:15:29;;;;;;;23.92;12.68;;;3.10;79.10;;;;;;4120314;28;20614;-84
2022/11/22 09:17:48;;;;;;;23.60;12.48;;;3.10;79.10;;;;;;4108488;28;20085;-84
2022/11/22 09:20:09;;;;;;;27.00;13.60;;;3.10;79.10;;;;;;4121671;28;20074;-85
2022/11/22 09:22:28;;;;;;;26.83;13.98;;;3.10;79.10;;;;;;4113614;28;20554;-84
2022/11/22 09:24:47;;;;;;;24.92;12.52;;;3.10;79.20;;;;;;4121800;28;20093;-84
2022/11/22 09:27:06;;;;;;;23.42;12.95;;;3.10;79.00;;;;;;4122330;28;20438;-84
2022/11/22 09:29:26;;;;;;;28.58;13.38;;;3.20;79.10;;;;;;4118697;28;20066;-84
2022/11/22 09:31:45;;;;;;;25.67;13.35;;;3.10;79.80;;;;;;4118551;28;20037;-84
2022/11/22 09:34:06;;;;;;;23.95;12.45;;;3.20;79.10;;;;;;4120711;28;20041;-84
2022/11/22 09:36:25;;;;;;;25.08;12.70;;;3.20;79.10;;;;;;4106705;28;20054;-84
2022/11/22 09:38:45;;;;;;;27.90;13.68;;;3.20;79.10;;;;;;4120139;28;20129;-85
2022/11/22 09:41:44;;;;;;;24.63;12.75;;;3.20;79.10;;;;;;4117667;28;20044;-84
2022/11/22 09:44:16;;;;;;;25.55;13.48;;;3.20;79.10;;;;;;4118134;28;20044;-84
2022/11/22 09:47:09;;;;;;;27.67;13.60;;;3.30;79.00;;;;;;4116310;28;20089;-84
2022/11/22 09:49:50;;;;;;;24.88;13.50;;;3.30;78.90;;;;;;4106859;28;20130;-84
2022/11/22 09:52:16;;;;;;;27.48;12.77;;;3.30;78.70;;;;;;4134609;28;20046;-85
2022/11/22 09:54:48;;;;;;;26.20;12.55;;;3.30;78.50;;;;;;4120742;28;20063;-85
2022/11/22 09:57:17;;;;;;;28.55;13.55;;;3.30;78.30;;;;;;4121506;28;20446;-84
2022/11/22 09:59:39;;;;;;;27.70;12.98;;;3.30;78.20;;;;;;4128320;28;20045;-84
2022/11/22 10:02:14;;;;;;;29.55;13.57;;;3.30;78.20;;;;;;4117901;28;20065;-85
2022/11/22 10:04:49;;;;;;;29.63;14.00;;;3.30;78.00;;;;;;4120888;28;20108;-84
2022/11/22 10:07:28;;;;;;;28.48;13.88;;;3.20;78.00;;;;;;4105635;28;20619;-86
2022/11/22 10:10:02;;;;;;;24.60;13.25;;;3.20;78.00;;;;;;4108840;28;20113;-84
2022/11/22 10:12:33;;;;;;;27.38;13.65;;;3.20;78.00;;;;;;4117709;28;20119;-84
2022/11/22 10:15:30;;;;;;;26.50;13.95;;;3.20;77.90;;;;;;4120097;28;20052;-84
2022/11/22 10:18:00;;;;;;;23.05;13.10;;;3.20;77.90;;;;;;4120586;28;20092;-84
2022/11/22 10:20:26;;;;;;;30.40;14.65;;;3.20;77.90;;;;;;4103005;28;20049;-85
2022/11/22 10:22:46;;;;;;;24.23;13.18;;;3.20;77.80;;;;;;4116492;28;20041;-85
2022/11/22 10:25:20;;;;;;;31.45;14.43;;;3.10;77.60;;;;;;4120728;28;20061;-85
2022/11/22 10:27:40;;;;;;;28.73;14.00;;;3.10;77.60;;;;;;4115386;28;20445;-85
2022/11/22 10:30:05;;;;;;;24.25;13.13;;;3.10;77.50;;;;;;4116186;28;20101;-85
2022/11/22 10:32:43;;;;;;;21.23;12.77;;;3.10;77.50;;;;;;4105661;28;20629;-85
2022/11/22 10:35:21;;;;;;;26.42;15.00;;;3.10;77.50;;;;;;4117933;28;20511;-85
2022/11/22 10:37:55;;;;;;;23.95;12.93;;;3.10;77.50;;;;;;4106138;28;20050;-84
2022/11/22 10:40:26;;;;;;;26.85;12.98;;;3.10;77.30;;;;;;4118296;28;20081;-85
2022/11/22 10:43:03;;;;;;;22.08;12.27;;;3.00;78.10;;;;;;4120097;28;20895;-85
2022/11/22 10:45:32;;;;;;;22.75;12.35;;;3.00;77.20;;;;;;4116836;28;20102;-85
2022/11/22 10:47:54;;;;;;;24.67;12.88;;;3.00;77.90;;;;;;4121613;28;20029;-84
2022/11/22 10:50:26;;;;;;;29.77;12.13;;;3.00;77.20;;;;;;4123439;28;20081;-84
2022/11/22 10:52:51;;;;;;;19.30;11.45;;;2.90;77.10;;;;;;4119651;28;20045;-85
2022/11/22 10:55:21;;;;;;;26.85;13.05;;;2.90;77.10;;;;;;4116094;28;20048;-85
2022/11/22 10:57:44;;;;;;;21.00;11.40;;;2.90;77.00;;;;;;4109172;28;20038;-85
2022/11/22 11:00:24;;;;;;;22.92;12.32;;;2.90;77.10;;;;;;4116623;28;20053;-84
2022/11/22 11:03:02;;;;;;;26.63;11.98;;;2.90;77.20;;;;;;4107182;28;20053;-84
2022/11/22 11:05:29;;;;;;;21.92;11.63;;;2.80;77.00;;;;;;4116186;28;21543;-84
2022/11/22 11:07:50;;;;;;;20.63;11.45;;;2.80;77.00;;;;;;4109758;28;20077;-85
2022/11/22 11:10:16;;;;;;;23.33;12.52;;;2.80;77.10;;;;;;4116755;28;20034;-86
2022/11/22 11:12:42;;;;;;;27.73;13.77;;;2.80;77.10;;;;;;4125961;28;20096;-84
2022/11/22 11:15:11;;;;;;;24.08;13.27;;;2.80;77.10;;;;;;4120441;28;20042;-85
2022/11/22 11:17:35;;;;;;;28.10;12.20;;;2.80;77.00;;;;;;4114248;28;20582;-84
2022/11/22 11:19:59;;;;;;;23.63;12.88;;;2.80;77.00;;;;;;4122638;28;20089;-85
2022/11/22 11:22:22;;;;;;;25.05;13.13;;;2.70;77.00;;;;;;4115899;28;20033;-85
2022/11/22 11:24:41;;;;;;;24.85;11.82;;;2.80;77.10;;;;;;4107043;28;20045;-85
2022/11/22 11:27:00;;;;;;;23.55;12.15;;;2.70;77.00;;;;;;4106205;28;20532;-84
2022/11/22 11:29:23;;;;;;;25.65;12.98;;;2.70;77.10;;;;;;4119161;28;20393;-85
2022/11/22 11:31:44;;;;;;;25.33;13.23;;;2.70;77.10;;;;;;4111202;28;20132;-84
2022/11/22 11:34:25;;;;;;;25.45;12.77;;;2.70;77.10;;;;;;4127294;28;20418;-84
2022/11/22 11:36:44;;;;;;;23.27;12.07;;;2.70;77.10;;;;;;4122522;28;20042;-85
2022/11/22 11:39:18;;;;;;;23.02;12.23;;;2.70;77.10;;;;;;4109407;28;20033;-85
2022/11/22 11:41:37;;;;;;;26.55;13.52;;;2.70;77.10;;;;;;4120824;28;20045;-85
2022/11/22 11:43:59;;;;;;;25.67;12.75;;;2.70;77.10;;;;;;4110290;28;20125;-84
2022/11/22 11:46:42;;;;;;;23.45;13.32;;;2.70;77.10;;;;;;4119472;28;20036;-85
2022/11/22 11:49:17;;;;;;;26.23;13.57;;;2.70;77.10;;;;;;4120581;28;20509;-85